Flight Track Log - Related Links

Times and Time Zones

All times are in EDT time to prevent confusion due to time zone crossing. See the AWE1693 flight status page for this flight to view local times or setup timezone preferences in your user account.

Time Position Orientation Groundspeed Altitude Reporting Facility
EDT Latitude Longitude Course Direction KTS MPH feet Rate Location/Type
Sat 12:08:55 35.1928 -80.9356 175° South 159 183 1,600  Level Atlanta Center
Sat 12:09:50 35.1428 -80.9300 175° South 197 227 3,000 1,655 Climbing Atlanta Center
Sat 12:10:22 35.1092 -80.9261 175° South 246 283 4,000 2,149 Climbing Atlanta Center
Sat 12:10:57 35.0714 -80.9147 166° South 257 296 5,400 1,900 Climbing Atlanta Center
Sat 12:11:00 34.9478 -80.6034 175° South  Level Estimated
Sat 12:11:22 35.0464 -80.9131 177° South 256 295 5,900  Level Atlanta Center
Sat 12:11:58 34.9981 -80.9047 172° South 271 312 7,700 2,350 Climbing Atlanta Center
Sat 12:12:00 34.8590 -80.4887 180° South  Level Estimated
Sat 12:13:00 34.7701 -80.3742 165° South  Level Estimated
Sat 12:13:22 34.8917 -80.9039 180° South 305 351 10,600  Level Atlanta Center
Sat 12:14:00 34.6810 -80.2600 175° South  Level Estimated
Sat 12:15:51 34.6489 -80.8989 179° South 350 403 15,300  Level Jacksonville Center
Sat 12:16:51 34.5486 -80.8886 175° South 361 415 17,900 2,000 Climbing Jacksonville Center
Sat 12:17:51 34.4461 -80.8758 174° South 366 421 19,300 1,450 Climbing Jacksonville Center
Sat 12:18:51 34.3394 -80.8606 173° South 372 428 20,800 1,450 Climbing Jacksonville Center
Sat 12:19:51 34.2475 -80.8428 171° South 385 443 22,200 1,400 Climbing Jacksonville Center
Sat 12:20:51 34.1325 -80.8328 176° South 391 450 23,600 1,350 Climbing Jacksonville Center
Sat 12:21:51 34.0175 -80.8181 174° South 413 475 24,900 1,200 Climbing Jacksonville Center
Sat 12:22:51 33.9022 -80.7883 168° South 418 481 26,000 900 Climbing Jacksonville Center
Sat 12:23:51 33.7944 -80.7083 148° Southeast 428 493 26,700 500 Climbing Jacksonville Center
Sat 12:24:51 33.6844 -80.6236 147° Southeast 450 518 27,000 150 Climbing Jacksonville Center
Sat 12:25:51 33.5703 -80.5394 148° Southeast 461 531 27,000  Level Jacksonville Center
Sat 12:26:51 33.4706 -80.4450 142° Southeast 471 542 27,000  Level Jacksonville Center
Sat 12:27:51 33.4050 -80.3050 119° Southeast 463 533 27,000  Level Jacksonville Center
Sat 12:28:51 33.3417 -80.1650 118° Southeast 470 541 27,000  Level Jacksonville Center
Sat 12:29:51 33.2714 -80.0108 119° Southeast 475 547 27,000  Level Jacksonville Center
Sat 12:30:51 33.2053 -79.8639 118° Southeast 481 554 27,000  Level Jacksonville Center
Sat 12:31:51 33.1392 -79.7247 120° Southeast 481 554 27,000  Level Jacksonville Center
Sat 12:32:51 33.0731 -79.5808 119° Southeast 487 560 27,000  Level Jacksonville Center
Sat 12:33:51 33.0108 -79.4419 118° Southeast 493 567 27,000 -50 Level Jacksonville Center
Sat 12:34:51 32.9422 -79.2986 120° Southeast 493 567 26,900  Descending Jacksonville Center
Sat 12:35:51 32.8775 -79.1578 119° Southeast 493 567 27,000 50 Climbing Jacksonville Center
Sat 12:36:51 32.8086 -79.0172 120° Southeast 493 567 27,000  Level Jacksonville Center
Sat 12:37:51 32.7414 -78.8744 119° Southeast 493 567 27,000  Level Jacksonville Center
Sat 12:38:51 32.6783 -78.7317 118° Southeast 493 567 27,000 -50 Level Jacksonville Center
Sat 12:39:51 32.6092 -78.5919 120° Southeast 493 567 26,900 100 Descending Jacksonville Center
Sat 12:40:51 32.5436 -78.4494 119° Southeast 493 567 27,200 950 Climbing Jacksonville Center
Sat 12:41:51 32.4781 -78.3100 119° Southeast 493 567 28,800 1,350 Climbing Jacksonville Center
Sat 12:42:51 32.4192 -78.1850 119° Southeast 493 567 29,900 850 Climbing Jacksonville Center
Sat 12:43:51 32.3514 -78.0458 120° Southeast 488 562 30,500 1,300 Climbing Jacksonville Center
Sat 12:44:51 32.2833 -77.9044 120° Southeast 488 562 32,500 1,250 Climbing Jacksonville Center
Sat 12:45:51 32.1994 -77.7914 131° Southeast 477 549 33,000 250 Climbing Jacksonville Center
Sat 12:46:51 32.0919 -77.7114 148° Southeast 454 522 33,000  Level Jacksonville Center
Sat 12:47:51 31.9844 -77.6342 149° Southeast 459 528 33,000  Level Jacksonville Center
Sat 12:48:51 31.8767 -77.5525 147° Southeast 459 528 33,000  Level Jacksonville Center
Sat 12:49:51 31.7706 -77.4658 145° Southeast 459 528 33,000  Level Jacksonville Center
Sat 12:50:51 31.6683 -77.3667 140° Southeast 464 534 33,000  Level Jacksonville Center
Sat 12:51:51 31.5622 -77.2853 147° Southeast 464 534 33,000 -50 Level Jacksonville Center
Sat 12:52:51 31.4622 -77.1914 141° Southeast 464 534 32,900 -50 Descending Jacksonville Center
Sat 12:53:51 31.3697 -77.0853 136° Southeast 464 534 32,900 50 Level Jacksonville Center
Sat 12:54:51 31.2850 -76.9714 131° Southeast 464 534 33,000 35 Climbing Jacksonville Center
Sat 12:56:41 31.3500 -77.0000 140° Southeast 462 532 33,000  Level New Oceanic
Sat 13:02:00 30.5561 -76.2386 141° Southeast 462 532 33,000  Level FlightAware
Sat 13:03:00 30.4565 -76.1443 141° Southeast 462 532 33,000  Level FlightAware
Sat 13:04:00 30.3569 -76.0502 141° Southeast 462 532 33,000  Level FlightAware
Sat 13:05:00 30.2572 -75.9563 141° Southeast 462 532 33,000  Level FlightAware
Sat 13:06:00 30.1575 -75.8625 141° Southeast 462 532 33,000  Level FlightAware
Sat 13:07:00 30.0577 -75.7690 141° Southeast 462 532 33,000  Level FlightAware
Sat 13:08:00 29.9578 -75.6757 141° Southeast 462 532 33,000  Level FlightAware
Sat 13:09:00 29.8578 -75.5825 141° Southeast 462 532 33,000  Level FlightAware
Sat 13:10:00 29.7578 -75.4895 141° Southeast 462 532 33,000  Level FlightAware
Sat 13:11:00 29.6577 -75.3967 141° Southeast 462 532 33,000  Level FlightAware
Sat 13:12:00 29.5576 -75.3041 141° Southeast 462 532 33,000  Level FlightAware
Sat 13:13:00 29.4574 -75.2117 141° Southeast 462 532 33,000  Level FlightAware
Sat 13:14:00 29.3571 -75.1195 141° Southeast 462 532 33,000  Level FlightAware
Sat 13:15:00 29.2568 -75.0274 141° Southeast 462 532 33,000  Level FlightAware
Sat 13:16:00 29.1564 -74.9356 141° Southeast 462 532 33,000  Level FlightAware
Sat 13:17:00 29.0559 -74.8439 141° Southeast 462 532 33,000  Level FlightAware
Sat 13:18:00 28.9554 -74.7523 141° Southeast 462 532 33,000  Level FlightAware
Sat 13:19:00 28.8548 -74.6610 142° Southeast 462 532 33,000  Level FlightAware
Sat 13:20:00 28.7541 -74.5698 142° Southeast 462 532 33,000  Level FlightAware
Sat 13:21:00 28.6534 -74.4789 142° Southeast 462 532 33,000  Level FlightAware
Sat 13:22:00 28.5527 -74.3881 142° Southeast 462 532 33,000  Level FlightAware
Sat 13:23:00 28.4518 -74.2974 142° Southeast 462 532 33,000  Level FlightAware
Sat 13:24:00 28.3510 -74.2070 142° Southeast 462 532 33,000  Level FlightAware
Sat 13:25:00 28.2500 -74.1167 149° Southeast 462 532 33,000  Level FlightAware
Sat 13:25:51 28.2500 -74.1167 149° Southeast 482 555 33,000  Level New Oceanic
Sat 13:26:00 28.1345 -74.0389 149° Southeast 462 532 33,000  Level FlightAware
Sat 13:27:00 28.0189 -73.9614 149° Southeast 462 532 33,000  Level FlightAware
Sat 13:28:00 27.9033 -73.8840 149° Southeast 462 532 33,000  Level FlightAware
Sat 13:29:00 27.7877 -73.8067 149° Southeast 462 532 33,000  Level FlightAware
Sat 13:30:00 27.6720 -73.7297 149° Southeast 462 532 33,000  Level FlightAware
Sat 13:31:00 27.5563 -73.6528 150° Southeast 462 532 33,000  Level FlightAware
Sat 13:32:00 27.4405 -73.5760 150° Southeast 482 555 33,000  Level FlightAware
Sat 13:33:00 27.3247 -73.4995 150° Southeast 482 555 33,000  Level FlightAware
Sat 13:34:00 27.2088 -73.4230 150° Southeast 482 555 33,000  Level FlightAware
Sat 13:35:00 27.0929 -73.3468 150° Southeast 482 555 33,000  Level FlightAware
Sat 13:36:00 26.9770 -73.2707 150° Southeast 482 555 33,000  Level FlightAware
Sat 13:37:00 26.8610 -73.1947 150° Southeast 482 555 33,000  Level FlightAware
Sat 13:38:00 26.7450 -73.1189 150° Southeast 482 555 33,000  Level FlightAware
Sat 13:39:00 26.6289 -73.0433 150° Southeast 482 555 33,000  Level FlightAware
Sat 13:40:00 26.5128 -72.9678 150° Southeast 482 555 33,000  Level FlightAware
Sat 13:41:00 26.3967 -72.8925 150° Southeast 482 555 33,000  Level FlightAware
Sat 13:42:00 26.2805 -72.8173 150° Southeast 482 555 33,000  Level FlightAware
Sat 13:43:00 26.1643 -72.7422 150° Southeast 482 555 33,000  Level FlightAware
Sat 13:44:00 26.0480 -72.6674 150° Southeast 482 555 33,000  Level FlightAware
Sat 13:45:00 25.9317 -72.5926 150° Southeast 482 555 33,000  Level FlightAware
Sat 13:46:00 25.8154 -72.5181 150° Southeast 482 555 33,000  Level FlightAware
Sat 13:46:09 25.7928 -72.5481 150° Southeast 457 526 33,000  Level Miami Center
Sat 13:47:00 25.6990 -72.4436 150° Southeast 482 555 33,000  Level FlightAware
Sat 13:47:09 25.6758 -72.4717 150° Southeast 470 541 33,000  Level Miami Center
Sat 13:48:00 25.5826 -72.3693 150° Southeast 482 555 33,000  Level FlightAware
Sat 13:48:09 25.5608 -72.3997 151° Southeast 480 552 33,000  Level Miami Center
Sat 13:49:00 25.4662 -72.2952 150° Southeast 482 555 33,000  Level FlightAware
Sat 13:49:09 25.4414 -72.3236 150° Southeast 485 558 33,000  Level Miami Center
Sat 13:50:00 25.3497 -72.2212 150° Southeast 482 555 33,000  Level FlightAware
Sat 13:50:09 25.3222 -72.2478 150° Southeast 493 567 33,000  Level Miami Center
Sat 13:51:00 25.2332 -72.1473 150° Southeast 482 555 33,000  Level FlightAware
Sat 13:51:09 25.2069 -72.1719 149° Southeast 493 567 33,000  Level Miami Center
Sat 13:52:09 25.0878 -72.0983 151° Southeast 488 562 33,000  Level Miami Center
Sat 13:53:09 24.9664 -72.0253 151° Southeast 488 562 33,000 50 Level Miami Center
Sat 13:54:09 24.8631 -71.9333 141° Southeast 493 567 33,100 1,000 Climbing Miami Center
Sat 13:55:09 24.7697 -71.8294 135° Southeast 483 556 35,000 1,450 Climbing Miami Center
Sat 13:56:09 24.6725 -71.7353 139° Southeast 472 543 36,000 750 Climbing Miami Center
Sat 13:57:09 24.5753 -71.6411 139° Southeast 458 527 36,500 400 Climbing Miami Center
Sat 13:58:09 24.4781 -71.5472 139° Southeast 463 533 36,800 250 Climbing Miami Center
Sat 13:59:09 24.3806 -71.4486 137° Southeast 473 544 37,000 100 Climbing Miami Center
Sat 14:00:09 24.2786 -71.3461 137° Southeast 479 551 37,000  Level Miami Center
Sat 14:01:09 24.1769 -71.2528 140° Southeast 484 557 37,000  Level Miami Center
Sat 14:02:09 24.0750 -71.1506 138° Southeast 484 557 37,000  Level Miami Center
Sat 14:03:09 23.9708 -71.0483 138° Southeast 484 557 37,000  Level Miami Center
Sat 14:04:09 23.8689 -70.9556 140° Southeast 489 563 37,000  Level Miami Center
Sat 14:05:09 23.7628 -70.8561 139° Southeast 494 568 37,000  Level Miami Center
Sat 14:06:09 23.6606 -70.7569 138° Southeast 499 574 37,000  Level Miami Center
Sat 14:07:09 23.5586 -70.6600 139° Southeast 499 574 37,000  Level Miami Center
Sat 14:08:09 23.4522 -70.5589 139° Southeast 499 574 37,000  Level Miami Center
Sat 14:09:09 23.3497 -70.4597 138° Southeast 499 574 37,000  Level Miami Center
Sat 14:10:09 23.2478 -70.3656 140° Southeast 499 574 37,000  Level Miami Center
Sat 14:11:09 23.1456 -70.2692 139° Southeast 494 568 37,000  Level Miami Center
Sat 14:12:09 23.0453 -70.1731 139° Southeast 489 563 37,000  Level Miami Center
Sat 14:13:09 22.9450 -70.0769 139° Southeast 489 563 37,000  Level Miami Center
Sat 14:14:09 22.8406 -69.9789 139° Southeast 484 557 37,000  Level Miami Center
Sat 14:15:09 22.7336 -69.8811 140° Southeast 489 563 37,000  Level Miami Center
Sat 14:16:09 22.6333 -69.7875 139° Southeast 489 563 37,000  Level Miami Center
Sat 14:17:09 22.5286 -69.6878 139° Southeast 495 570 37,000  Level Miami Center
Sat 14:18:09 22.4242 -69.5925 140° Southeast 495 570 37,000  Level Miami Center
Sat 14:19:09 22.3214 -69.4953 139° Southeast 495 570 37,000  Level Miami Center
Sat 14:20:09 22.2122 -69.3961 140° Southeast 495 570 37,000  Level Miami Center
Sat 14:21:09 22.1075 -69.3014 140° Southeast 495 570 37,000  Level Miami Center
Sat 14:22:09 22.0069 -69.2067 139° Southeast 500 575 37,000  Level Miami Center
Sat 14:23:09 21.8997 -69.1078 139° Southeast 500 575 37,000  Level Miami Center
Sat 14:24:09 21.7861 -69.0050 140° Southeast 500 575 37,000  Level Miami Center
Sat 14:25:09 21.6811 -68.9089 140° Southeast 494 568 37,000  Level Miami Center
Sat 14:26:09 21.5742 -68.8128 140° Southeast 499 574 37,000  Level Miami Center
Sat 14:27:09 21.4669 -68.7167 140° Southeast 499 574 37,000  Level Miami Center
Sat 14:28:09 21.3558 -68.6236 142° Southeast 504 580 37,000  Level Miami Center
Sat 14:29:09 21.2631 -68.5269 136° Southeast 496 571 37,000  Level Miami Center
Sat 14:30:09 21.1558 -68.4336 141° Southeast 491 565 37,000  Level Miami Center
Sat 14:31:09 21.0508 -68.3383 140° Southeast 496 571 37,000  Level Miami Center
Sat 14:32:09 20.9533 -68.2314 134° Southeast 496 571 37,000  Level Miami Center
Sat 14:33:09 20.8719 -68.1169 127° Southeast 496 571 37,000  Level Miami Center
Sat 14:34:09 20.7842 -68.0008 129° Southeast 496 571 37,000  Level Miami Center
Sat 14:35:09 20.7086 -67.8819 124° Southeast 496 571 37,000  Level Miami Center
Sat 14:36:09 20.6167 -67.7686 131° Southeast 496 571 37,000  Level Miami Center
Sat 14:37:09 20.5447 -67.6783 130° Southeast 496 571 37,000  Level Miami Center
Sat 14:37:35 20.5167 -67.6167 116° Southeast 490 564 37,000  Level San Center
Sat 14:38:35 20.4333 -67.5000 127° Southeast 490 564 37,000  Level San Center
Sat 14:39:35 20.3500 -67.3833 127° Southeast 490 564 37,000  Level San Center
Sat 14:40:35 20.2667 -67.2667 127° Southeast 490 564 37,000  Level San Center
Sat 14:41:36 20.1667 -67.1500 132° Southeast 500 575 37,000  Level San Center
Sat 14:42:36 20.0833 -67.0333 127° Southeast 500 575 37,000  Level San Center
Sat 14:43:36 20.0000 -66.9167 127° Southeast 500 575 37,000  Level San Center
Sat 14:44:37 19.9167 -66.8000 127° Southeast 510 587 37,000  Level San Center
Sat 14:45:37 19.8167 -66.6833 132° Southeast 510 587 37,000 -750 Level San Center
Sat 14:46:37 19.7333 -66.5667 127° Southeast 500 575 35,500 -1,736 Descending San Center
Sat 14:47:38 19.6500 -66.4500 127° Southeast 500 575 33,500 -1,190 Descending San Center
Sat 14:48:38 19.5667 -66.3333 127° Southeast 510 587 33,100 -250 Descending San Center
Sat 14:49:38 19.4667 -66.2167 132° Southeast 500 575 33,000 -50 Descending San Center
Sat 14:50:39 19.3833 -66.1000 127° Southeast 500 575 33,000  Level San Center
Sat 14:51:39 19.3000 -65.9833 127° Southeast 500 575 33,000  Level San Center
Sat 14:52:39 19.2167 -65.8667 127° Southeast 500 575 33,000  Level San Center
Sat 14:53:39 19.1167 -65.7500 132° Southeast 500 575 33,000  Level San Center
Sat 14:54:39 19.0333 -65.6333 127° Southeast 500 575 33,000  Level San Center
Sat 14:55:40 18.9333 -65.5000 128° Southeast 500 575 33,000  Level San Center
Sat 14:56:40 18.8500 -65.4000 131° Southeast 480 552 33,000  Level San Center
Sat 14:57:40 18.7667 -65.2833 127° Southeast 470 541 33,000  Level San Center
Sat 14:58:41 18.7000 -65.1667 121° Southeast 470 541 33,000  Level San Center
Sat 14:59:41 18.6333 -65.0500 121° Southeast 460 529 33,000 -250 Level San Center
Sat 15:00:41 18.5667 -64.9333 121° Southeast 450 518 32,500 -750 Descending San Center
Sat 15:01:41 18.5000 -64.8333 125° Southeast 450 518 31,500 -992 Descending San Center
Sat 15:02:42 18.4333 -64.7167 121° Southeast 440 506 30,500 -992 Descending San Center
Sat 15:03:42 18.3500 -64.6167 131° Southeast 440 506 29,500 -900 Descending San Center
Sat 15:04:42 18.2833 -64.5333 130° Southeast 410 472 28,700 -893 Descending San Center
Sat 15:05:43 18.2000 -64.4333 131° Southeast 410 472 27,700 -992 Descending San Center
Sat 15:06:43 18.1167 -64.3500 136° Southeast 400 460 26,700 -1,000 Descending San Center
Sat 15:07:43 18.0500 -64.2667 130° Southeast 410 472 25,700 -992 Descending San Center
Sat 15:08:44 17.9667 -64.1833 136° Southeast 400 460 24,700 -992 Descending San Center
Sat 15:09:44 17.8833 -64.1000 136° Southeast 390 449 23,700 -950 Descending San Center
Sat 15:10:44 17.8167 -64.0167 130° Southeast 380 437 22,800 -942 Descending San Center
Sat 15:11:45 17.7500 -63.9333 130° Southeast 380 437 21,800 -1,240 Descending San Center
Sat 15:12:45 17.6667 -63.8667 143° Southeast 370 426 20,300 -1,450 Descending San Center
Sat 15:13:45 17.6000 -63.7833 130° Southeast 350 403 18,900 -1,438 Descending San Center
Sat 15:14:46 17.5333 -63.7000 130° Southeast 350 403 17,400 -1,488 Descending San Center
Sat 15:15:46 17.4833 -63.6333 128° Southeast 340 391 15,900 -1,400 Descending San Center
Sat 15:16:46 17.4667 -63.5333 100° East 350 403 14,600 -1,289 Descending San Center
Sat 15:17:47 17.4500 -63.4333 100° East 310 357 13,300 -1,339 Descending San Center
Sat 15:18:47 17.4167 -63.3500 113° Southeast 320 368 11,900 -1,350 Descending San Center
Sat 15:19:47 17.4000 -63.2667 102° East 310 357 10,600 -1,400 Descending San Center
Sat 15:20:47 17.3833 -63.1667 100° East 300 345 9,100 -793 Descending San Center
Sat 15:21:48 17.3667 -63.0833 102° East 300 345 9,000 -50 Descending San Center
Sat 15:22:48 17.3500 -63.0000 102° East 300 345 9,000  Level San Center
Sat 15:24:00 17.3097 -62.8485 102° East  Level FlightAware
Sat 15:31:00 17.3112 -62.7187 North  Level Estimated

Login

Don't have an account? Register now (free) for customized features, flight alerts, and more!